Time;durP1;ratioP1;P1;durP2;ratioP2;P2;SDS_P1;SDS_P2;PMS_P1;PMS_P2;Temp;Humidity;BMP_temperature;BMP_pressure;BME280_temperature;BME280_humidity;BME280_pressure;Samples;Min_cycle;Max_cycle;Signal;HPM_P1;HPM_P2
2021/06/08 00:00:19;;;;;;;34.40;27.17;;;;;;;;;;5062667;28;20036;-69
2021/06/08 00:02:46;;;;;;;30.70;26.73;;;;;;;;;;5060761;28;20717;-69
2021/06/08 00:05:12;;;;;;;30.90;26.35;;;;;;;;;;5063161;28;20040;-69
2021/06/08 00:07:38;;;;;;;33.72;25.88;;;;;;;;;;5061616;28;20098;-69
2021/06/08 00:10:06;;;;;;;28.98;24.90;;;;;;;;;;5056008;28;20541;-69
2021/06/08 00:12:32;;;;;;;32.17;28.38;;;;;;;;;;5060953;28;20037;-69
2021/06/08 00:14:58;;;;;;;29.75;25.65;;;;;;;;;;5063899;28;20166;-70
2021/06/08 00:17:24;;;;;;;28.85;25.17;;;;;;;;;;5062028;28;20044;-69
2021/06/08 00:19:51;;;;;;;31.98;27.63;;;;;;;;;;5062774;28;20151;-69
2021/06/08 00:22:17;;;;;;;29.65;25.42;;;;;;;;;;5064111;28;20048;-68
2021/06/08 00:24:44;;;;;;;32.22;27.52;;;;;;;;;;5063068;28;21038;-69
2021/06/08 00:27:10;;;;;;;28.58;24.10;;;;;;;;;;5065726;28;20056;-69
2021/06/08 00:29:37;;;;;;;30.45;25.48;;;;;;;;;;5059855;28;20502;-69
2021/06/08 00:32:03;;;;;;;31.10;25.88;;;;;;;;;;5062892;28;20048;-69
2021/06/08 00:34:30;;;;;;;31.48;24.60;;;;;;;;;;5064708;28;20113;-69
2021/06/08 00:36:56;;;;;;;30.42;26.13;;;;;;;;;;5065806;28;20113;-69
2021/06/08 00:39:23;;;;;;;31.05;25.42;;;;;;;;;;5064960;28;20052;-69
2021/06/08 00:41:49;;;;;;;30.27;25.65;;;;;;;;;;5065172;28;20047;-69
2021/06/08 00:44:17;;;;;;;30.65;25.27;;;;;;;;;;5065709;28;20051;-69
2021/06/08 00:46:57;;;;;;;39.30;26.05;;;;;;;;;;5065642;28;20117;-69
2021/06/08 00:49:24;;;;;;;32.30;26.02;;;;;;;;;;5063613;28;20477;-69
2021/06/08 00:51:51;;;;;;;31.08;25.63;;;;;;;;;;5065998;28;20143;-69
2021/06/08 00:54:17;;;;;;;33.90;27.10;;;;;;;;;;5066876;28;20044;-69
2021/06/08 00:56:45;;;;;;;31.38;26.50;;;;;;;;;;5065302;28;20066;-69
2021/06/08 00:59:12;;;;;;;31.73;27.80;;;;;;;;;;5066223;28;20055;-69
2021/06/08 01:01:40;;;;;;;36.33;26.67;;;;;;;;;;5065262;28;20052;-69
2021/06/08 01:04:08;;;;;;;36.15;29.10;;;;;;;;;;5064881;28;20087;-69
2021/06/08 01:06:35;;;;;;;35.22;27.83;;;;;;;;;;5064057;28;20056;-69
2021/06/08 01:09:02;;;;;;;43.25;31.35;;;;;;;;;;5060979;28;20392;-69
2021/06/08 01:11:28;;;;;;;40.92;31.60;;;;;;;;;;5062657;28;20461;-69
2021/06/08 01:13:54;;;;;;;38.33;30.48;;;;;;;;;;5064714;28;20056;-69
2021/06/08 01:16:21;;;;;;;41.58;31.75;;;;;;;;;;5071325;28;20040;-69
2021/06/08 01:18:47;;;;;;;43.67;33.40;;;;;;;;;;5065790;28;20048;-69
2021/06/08 01:21:14;;;;;;;98.40;32.55;;;;;;;;;;5064777;28;20517;-69
2021/06/08 01:23:42;;;;;;;72.82;30.63;;;;;;;;;;5063061;28;20060;-69
2021/06/08 01:26:10;;;;;;;48.55;29.20;;;;;;;;;;5062602;28;20047;-69
2021/06/08 01:28:37;;;;;;;41.70;29.23;;;;;;;;;;5059821;28;20182;-69
2021/06/08 01:31:09;;;;;;;38.65;30.00;;;;;;;;;;5062176;28;20407;-69
2021/06/08 01:33:39;;;;;;;81.00;29.85;;;;;;;;;;5066295;28;20047;-69
2021/06/08 01:36:06;;;;;;;39.75;30.83;;;;;;;;;;5064490;28;20119;-69
2021/06/08 01:38:34;;;;;;;100.78;33.78;;;;;;;;;;5063396;28;20133;-69
2021/06/08 01:41:00;;;;;;;60.35;31.10;;;;;;;;;;5064495;28;20186;-69
2021/06/08 01:43:26;;;;;;;44.35;29.63;;;;;;;;;;5064937;28;20571;-69
2021/06/08 01:45:52;;;;;;;35.75;29.88;;;;;;;;;;5063371;28;20460;-69
2021/06/08 01:48:20;;;;;;;44.00;30.65;;;;;;;;;;5062577;28;20421;-69
2021/06/08 01:50:48;;;;;;;44.45;31.25;;;;;;;;;;5065854;28;20178;-69
2021/06/08 01:53:30;;;;;;;37.65;29.92;;;;;;;;;;5064714;28;20060;-69
2021/06/08 01:56:00;;;;;;;48.90;31.35;;;;;;;;;;5063009;28;20077;-69
2021/06/08 01:58:26;;;;;;;84.47;33.10;;;;;;;;;;5063391;28;20036;-69
2021/06/08 02:00:55;;;;;;;49.47;31.40;;;;;;;;;;5062722;28;20097;-69
2021/06/08 02:03:31;;;;;;;63.47;33.70;;;;;;;;;;5058792;28;20116;-69
2021/06/08 02:06:16;;;;;;;73.95;34.22;;;;;;;;;;5063501;28;20131;-69
2021/06/08 02:08:44;;;;;;;67.50;35.78;;;;;;;;;;5058511;28;20052;-69
2021/06/08 02:11:10;;;;;;;55.63;30.73;;;;;;;;;;5060980;28;20170;-69
2021/06/08 02:13:52;;;;;;;48.67;28.42;;;;;;;;;;5061988;28;20071;-69
2021/06/08 02:16:20;;;;;;;37.33;28.73;;;;;;;;;;5064551;28;20047;-69
2021/06/08 02:18:47;;;;;;;53.78;26.95;;;;;;;;;;5063194;28;20044;-69
2021/06/08 02:21:16;;;;;;;43.67;28.48;;;;;;;;;;5062212;28;20097;-69
2021/06/08 02:24:03;;;;;;;51.95;27.25;;;;;;;;;;5043201;28;21580;-69
2021/06/08 02:26:32;;;;;;;45.45;25.90;;;;;;;;;;5061778;28;20133;-69
2021/06/08 02:29:03;;;;;;;40.65;24.67;;;;;;;;;;5054023;28;20454;-69
2021/06/08 02:31:30;;;;;;;64.63;25.55;;;;;;;;;;5062935;28;20068;-69
2021/06/08 02:33:58;;;;;;;32.75;22.73;;;;;;;;;;5061299;28;20048;-69
2021/06/08 02:36:26;;;;;;;57.60;24.13;;;;;;;;;;5063037;28;20093;-69
2021/06/08 02:38:54;;;;;;;85.78;22.60;;;;;;;;;;5064889;28;20036;-69
2021/06/08 02:41:22;;;;;;;77.97;21.58;;;;;;;;;;5063817;28;20097;-69
2021/06/08 02:43:50;;;;;;;51.38;23.10;;;;;;;;;;5064815;28;21025;-69
2021/06/08 02:46:16;;;;;;;53.53;21.98;;;;;;;;;;5064289;28;20107;-69
2021/06/08 02:48:43;;;;;;;56.90;19.70;;;;;;;;;;5059199;28;20056;-69
2021/06/08 02:51:10;;;;;;;53.78;21.25;;;;;;;;;;5064060;28;20059;-69
2021/06/08 02:53:37;;;;;;;64.80;22.80;;;;;;;;;;5064285;28;20052;-69
2021/06/08 02:56:05;;;;;;;66.53;22.00;;;;;;;;;;5064371;28;20127;-69
2021/06/08 02:58:35;;;;;;;59.10;22.33;;;;;;;;;;5060860;28;20100;-69
2021/06/08 03:01:01;;;;;;;40.63;20.25;;;;;;;;;;5063139;28;20047;-69
2021/06/08 03:03:33;;;;;;;33.60;21.58;;;;;;;;;;5061255;28;20486;-69
2021/06/08 03:06:03;;;;;;;73.57;22.95;;;;;;;;;;5062071;28;20044;-69
2021/06/08 03:08:33;;;;;;;59.63;21.77;;;;;;;;;;5057068;28;20491;-69
2021/06/08 03:11:09;;;;;;;49.10;20.67;;;;;;;;;;5061098;28;20041;-69
2021/06/08 03:13:37;;;;;;;42.33;19.50;;;;;;;;;;5061678;28;21529;-69
2021/06/08 03:16:07;;;;;;;78.38;22.95;;;;;;;;;;5061838;28;20059;-69
2021/06/08 03:18:33;;;;;;;53.55;20.60;;;;;;;;;;5061486;28;20117;-69
2021/06/08 03:21:11;;;;;;;101.97;23.05;;;;;;;;;;5062553;28;20071;-69
2021/06/08 03:23:38;;;;;;;60.25;20.52;;;;;;;;;;5061594;28;20087;-69
2021/06/08 03:26:06;;;;;;;47.25;21.23;;;;;;;;;;5062002;28;20068;-69
2021/06/08 03:28:33;;;;;;;54.15;21.83;;;;;;;;;;5055863;28;20131;-69
2021/06/08 03:31:00;;;;;;;49.45;21.27;;;;;;;;;;5061602;28;20552;-69
2021/06/08 03:33:27;;;;;;;38.47;21.45;;;;;;;;;;5061183;28;20048;-69
2021/06/08 03:35:56;;;;;;;68.63;22.55;;;;;;;;;;5062282;28;20045;-69
2021/06/08 03:38:24;;;;;;;75.95;17.42;;;;;;;;;;5060581;28;20157;-69
2021/06/08 03:40:51;;;;;;;32.05;16.58;;;;;;;;;;5063672;28;20040;-69
2021/06/08 03:43:18;;;;;;;44.22;14.75;;;;;;;;;;5060544;28;20055;-69
2021/06/08 03:45:48;;;;;;;36.22;16.13;;;;;;;;;;5060064;28;20098;-69
2021/06/08 03:48:15;;;;;;;63.08;17.02;;;;;;;;;;5061856;28;20115;-69
2021/06/08 03:50:44;;;;;;;55.42;16.00;;;;;;;;;;5064680;28;20047;-69
2021/06/08 03:53:11;;;;;;;84.88;17.20;;;;;;;;;;5059876;28;20106;-69
2021/06/08 03:55:38;;;;;;;30.60;15.55;;;;;;;;;;5061114;28;20111;-69
2021/06/08 03:58:11;;;;;;;101.28;17.95;;;;;;;;;;5063195;28;20116;-69
2021/06/08 04:00:37;;;;;;;45.08;16.90;;;;;;;;;;5060860;28;20574;-69
2021/06/08 04:03:05;;;;;;;21.30;15.13;;;;;;;;;;5058679;28;20123;-69
2021/06/08 04:05:31;;;;;;;39.90;14.40;;;;;;;;;;5061277;28;20048;-69
2021/06/08 04:07:58;;;;;;;35.35;13.95;;;;;;;;;;5057569;28;20060;-69
2021/06/08 04:10:24;;;;;;;27.00;14.65;;;;;;;;;;5061401;28;20410;-69
2021/06/08 04:12:51;;;;;;;25.80;13.20;;;;;;;;;;5061309;28;20053;-69
2021/06/08 04:15:18;;;;;;;44.60;14.82;;;;;;;;;;5060860;28;20380;-69
2021/06/08 04:17:44;;;;;;;48.00;13.68;;;;;;;;;;5061747;28;20139;-69
2021/06/08 04:20:11;;;;;;;20.83;12.20;;;;;;;;;;5059965;28;20045;-69
2021/06/08 04:22:39;;;;;;;42.88;13.65;;;;;;;;;;5060293;28;20118;-69
2021/06/08 04:25:07;;;;;;;23.25;11.98;;;;;;;;;;5062194;28;20119;-69
2021/06/08 04:27:35;;;;;;;43.22;14.13;;;;;;;;;;5035809;28;20047;-69
2021/06/08 04:30:05;;;;;;;34.55;12.77;;;;;;;;;;5056533;28;20363;-69
2021/06/08 04:32:40;;;;;;;37.53;12.43;;;;;;;;;;5059355;28;20163;-69
2021/06/08 04:35:08;;;;;;;91.03;14.65;;;;;;;;;;5060583;28;20125;-69
2021/06/08 04:37:35;;;;;;;58.22;13.45;;;;;;;;;;5062245;28;20056;-69
2021/06/08 04:40:01;;;;;;;82.82;14.10;;;;;;;;;;5062046;28;20051;-69
2021/06/08 04:42:28;;;;;;;51.67;15.18;;;;;;;;;;5063714;28;20060;-69
2021/06/08 04:44:55;;;;;;;24.38;14.02;;;;;;;;;;5062704;28;20064;-69
2021/06/08 04:47:22;;;;;;;22.70;13.75;;;;;;;;;;5063346;28;20098;-69
2021/06/08 04:49:49;;;;;;;28.65;14.88;;;;;;;;;;5059392;28;20098;-68
2021/06/08 04:52:36;;;;;;;50.47;14.77;;;;;;;;;;5046932;28;20132;-69
2021/06/08 04:55:07;;;;;;;45.60;14.00;;;;;;;;;;5068129;28;20083;-69
2021/06/08 04:57:54;;;;;;;42.25;14.13;;;;;;;;;;5053324;28;20045;-69
2021/06/08 05:00:26;;;;;;;20.85;15.88;;;;;;;;;;5066076;28;20056;-69
2021/06/08 05:02:55;;;;;;;45.33;14.88;;;;;;;;;;5072107;28;20037;-69
2021/06/08 05:05:24;;;;;;;49.35;14.70;;;;;;;;;;5066353;28;20055;-69
2021/06/08 05:08:00;;;;;;;33.15;14.75;;;;;;;;;;5069963;28;20048;-68
2021/06/08 05:10:27;;;;;;;85.40;15.75;;;;;;;;;;5061822;28;20086;-68
2021/06/08 05:12:54;;;;;;;52.25;13.85;;;;;;;;;;5071494;28;20060;-68
2021/06/08 05:15:22;;;;;;;46.50;12.80;;;;;;;;;;5077439;28;20494;-69
2021/06/08 05:17:49;;;;;;;25.92;12.25;;;;;;;;;;5073318;28;20036;-69
2021/06/08 05:20:17;;;;;;;33.92;12.43;;;;;;;;;;5071103;28;20054;-69
2021/06/08 05:22:45;;;;;;;69.15;14.25;;;;;;;;;;5071549;28;20076;-69
2021/06/08 05:25:12;;;;;;;18.15;12.98;;;;;;;;;;5066536;28;20032;-68
2021/06/08 05:27:59;;;;;;;18.05;12.45;;;;;;;;;;5060075;28;20128;-69
2021/06/08 05:30:46;;;;;;;19.17;12.48;;;;;;;;;;5061263;28;20045;-69
2021/06/08 05:33:18;;;;;;;27.65;13.25;;;;;;;;;;5071691;28;20036;-69
2021/06/08 05:35:45;;;;;;;18.15;12.48;;;;;;;;;;5064181;28;20435;-69
2021/06/08 05:38:15;;;;;;;17.10;12.85;;;;;;;;;;5065732;28;20071;-69
2021/06/08 05:40:44;;;;;;;21.50;13.52;;;;;;;;;;5068753;28;20060;-70
2021/06/08 05:43:11;;;;;;;30.17;13.05;;;;;;;;;;5068186;28;20041;-69
2021/06/08 05:45:38;;;;;;;45.53;13.25;;;;;;;;;;5066570;28;20438;-69
2021/06/08 05:48:19;;;;;;;28.98;14.77;;;;;;;;;;5042576;28;20052;-70
2021/06/08 05:50:46;;;;;;;18.65;13.75;;;;;;;;;;5064906;28;20068;-70
2021/06/08 05:53:15;;;;;;;36.55;13.85;;;;;;;;;;5066154;28;21902;-70
2021/06/08 05:55:46;;;;;;;18.02;13.65;;;;;;;;;;5065777;28;20087;-70
2021/06/08 05:58:13;;;;;;;18.30;12.80;;;;;;;;;;5066395;28;20494;-70
2021/06/08 06:00:40;;;;;;;17.98;12.27;;;;;;;;;;5068038;28;20048;-70
2021/06/08 06:03:07;;;;;;;19.42;12.57;;;;;;;;;;5067853;28;20098;-69
2021/06/08 06:05:53;;;;;;;18.33;12.82;;;;;;;;;;5066517;28;20115;-68
2021/06/08 06:08:20;;;;;;;22.50;13.18;;;;;;;;;;5061306;28;20044;-68
2021/06/08 06:10:47;;;;;;;29.95;14.63;;;;;;;;;;5043699;28;20063;-68
2021/06/08 06:13:15;;;;;;;19.48;13.52;;;;;;;;;;5044030;28;20060;-69
2021/06/08 06:15:43;;;;;;;27.48;13.63;;;;;;;;;;5049206;28;20077;-69
2021/06/08 06:18:11;;;;;;;18.65;12.68;;;;;;;;;;5065190;28;20071;-69
2021/06/08 06:20:58;;;;;;;30.08;13.32;;;;;;;;;;5047268;28;20055;-70
2021/06/08 06:23:24;;;;;;;14.60;11.07;;;;;;;;;;5064603;28;20041;-69
2021/06/08 06:26:02;;;;;;;16.63;13.25;;;;;;;;;;5050274;28;20089;-70
2021/06/08 06:28:48;;;;;;;16.33;11.93;;;;;;;;;;5063033;28;20049;-69
2021/06/08 06:31:23;;;;;;;15.13;12.63;;;;;;;;;;5064279;28;20048;-69
2021/06/08 06:33:55;;;;;;;28.90;14.40;;;;;;;;;;5067347;28;20484;-69
2021/06/08 06:36:24;;;;;;;17.13;13.50;;;;;;;;;;5062971;28;20438;-69
2021/06/08 06:38:51;;;;;;;23.73;13.48;;;;;;;;;;5066938;28;20040;-69
2021/06/08 06:41:18;;;;;;;21.92;14.68;;;;;;;;;;5065754;28;20078;-69
2021/06/08 06:43:50;;;;;;;17.60;13.20;;;;;;;;;;5069123;28;20063;-69
2021/06/08 06:46:17;;;;;;;18.10;15.25;;;;;;;;;;5068394;28;20364;-69
2021/06/08 06:48:44;;;;;;;16.30;13.13;;;;;;;;;;5065638;28;20480;-69
2021/06/08 06:51:11;;;;;;;19.17;13.27;;;;;;;;;;5069499;28;20202;-69
2021/06/08 06:53:41;;;;;;;17.02;13.30;;;;;;;;;;5068905;28;20061;-69
2021/06/08 06:56:09;;;;;;;15.32;12.60;;;;;;;;;;5068469;28;20373;-69
2021/06/08 06:58:36;;;;;;;16.52;13.32;;;;;;;;;;5068700;28;20117;-69
2021/06/08 07:01:07;;;;;;;14.70;12.43;;;;;;;;;;5068947;28;20037;-69
2021/06/08 07:03:34;;;;;;;15.45;12.10;;;;;;;;;;5059990;28;20048;-69
2021/06/08 07:06:01;;;;;;;14.30;11.05;;;;;;;;;;5068173;28;20040;-69
2021/06/08 07:08:32;;;;;;;13.50;11.00;;;;;;;;;;5066183;28;20353;-69
2021/06/08 07:10:58;;;;;;;18.42;13.05;;;;;;;;;;5067789;28;20442;-69
2021/06/08 07:13:26;;;;;;;28.63;12.95;;;;;;;;;;5067821;28;20392;-69
2021/06/08 07:15:55;;;;;;;13.52;11.32;;;;;;;;;;5062501;28;20036;-69
2021/06/08 07:18:29;;;;;;;11.45;9.70;;;;;;;;;;5061993;28;20051;-69
2021/06/08 07:20:55;;;;;;;12.32;10.25;;;;;;;;;;5061375;28;20470;-69
2021/06/08 07:23:22;;;;;;;11.27;9.38;;;;;;;;;;5060610;28;20051;-69
2021/06/08 07:25:50;;;;;;;17.30;10.90;;;;;;;;;;5059909;28;20044;-70
2021/06/08 07:28:25;;;;;;;15.90;11.02;;;;;;;;;;5061239;28;20049;-69
2021/06/08 07:31:00;;;;;;;12.35;10.20;;;;;;;;;;5062573;28;20086;-69
2021/06/08 07:33:44;;;;;;;15.63;10.70;;;;;;;;;;5063379;28;20036;-69
2021/06/08 07:36:17;;;;;;;17.20;10.60;;;;;;;;;;5068354;28;20143;-69
2021/06/08 07:38:49;;;;;;;12.77;11.13;;;;;;;;;;5067379;28;20098;-69
2021/06/08 07:41:35;;;;;;;13.32;10.27;;;;;;;;;;5065183;28;20147;-69
2021/06/08 07:44:05;;;;;;;15.68;10.07;;;;;;;;;;5066961;28;20091;-69
2021/06/08 07:46:44;;;;;;;14.98;10.25;;;;;;;;;;5068256;28;20060;-69
2021/06/08 07:49:12;;;;;;;11.60;9.65;;;;;;;;;;5068181;28;20417;-69
2021/06/08 07:51:41;;;;;;;12.95;10.45;;;;;;;;;;5066452;28;20052;-69
2021/06/08 07:54:08;;;;;;;13.65;11.05;;;;;;;;;;5067828;28;20549;-69
2021/06/08 07:56:37;;;;;;;13.25;10.80;;;;;;;;;;5065775;28;20129;-68
2021/06/08 07:59:09;;;;;;;13.52;10.43;;;;;;;;;;5067458;28;20113;-68
2021/06/08 08:01:39;;;;;;;14.15;10.30;;;;;;;;;;5068074;28;20048;-68
2021/06/08 08:04:09;;;;;;;11.43;9.70;;;;;;;;;;5061198;28;20049;-69
2021/06/08 08:06:35;;;;;;;11.93;9.05;;;;;;;;;;5055015;28;20177;-68
2021/06/08 08:09:03;;;;;;;11.93;9.85;;;;;;;;;;5059095;28;20060;-68
2021/06/08 08:11:36;;;;;;;16.77;10.48;;;;;;;;;;5054817;28;20048;-69
2021/06/08 08:14:15;;;;;;;14.90;10.75;;;;;;;;;;5057860;28;20114;-69
2021/06/08 08:17:02;;;;;;;13.55;9.88;;;;;;;;;;5037746;28;20048;-69
2021/06/08 08:19:48;;;;;;;14.43;10.93;;;;;;;;;;5035996;28;20465;-69
2021/06/08 08:22:35;;;;;;;12.57;10.40;;;;;;;;;;5046635;28;20063;-69
2021/06/08 08:25:21;;;;;;;12.98;11.43;;;;;;;;;;5044808;28;20751;-69
2021/06/08 08:28:08;;;;;;;12.55;11.25;;;;;;;;;;5045305;28;20049;-69
2021/06/08 08:30:44;;;;;;;11.15;10.05;;;;;;;;;;5054504;28;20086;-69
2021/06/08 08:33:24;;;;;;;11.25;9.95;;;;;;;;;;5045735;28;20099;-69
2021/06/08 08:35:51;;;;;;;11.95;10.75;;;;;;;;;;5054770;28;20040;-69
2021/06/08 08:38:18;;;;;;;12.63;10.63;;;;;;;;;;5065246;28;20152;-69
2021/06/08 08:40:48;;;;;;;12.95;11.18;;;;;;;;;;5062127;28;20048;-69
2021/06/08 08:43:15;;;;;;;14.05;10.98;;;;;;;;;;5063555;28;20044;-69
2021/06/08 08:45:49;;;;;;;12.35;10.20;;;;;;;;;;5066978;28;20108;-69
2021/06/08 08:48:16;;;;;;;13.77;11.10;;;;;;;;;;5067916;28;20064;-69
2021/06/08 08:50:48;;;;;;;13.35;10.38;;;;;;;;;;5067043;28;20420;-69
2021/06/08 08:53:18;;;;;;;17.77;10.55;;;;;;;;;;5063671;28;20048;-69
2021/06/08 08:56:05;;;;;;;12.60;9.85;;;;;;;;;;5050955;28;20140;-69
2021/06/08 08:58:41;;;;;;;16.02;9.70;;;;;;;;;;5067303;28;20052;-69
2021/06/08 09:01:10;;;;;;;11.18;9.15;;;;;;;;;;5065589;28;20040;-69
2021/06/08 09:03:37;;;;;;;12.48;10.45;;;;;;;;;;5065657;28;20475;-69
2021/06/08 09:06:04;;;;;;;11.90;10.45;;;;;;;;;;5060120;28;20471;-69
2021/06/08 09:08:31;;;;;;;12.35;10.73;;;;;;;;;;5065177;28;20400;-69
2021/06/08 09:10:59;;;;;;;12.48;9.52;;;;;;;;;;5065865;28;20053;-69
2021/06/08 09:13:30;;;;;;;11.98;10.00;;;;;;;;;;5064620;28;20437;-69
2021/06/08 09:15:57;;;;;;;13.80;10.00;;;;;;;;;;5060468;28;20430;-69
2021/06/08 09:18:24;;;;;;;13.73;10.23;;;;;;;;;;5057096;28;20239;-69
2021/06/08 09:20:52;;;;;;;11.98;9.73;;;;;;;;;;5063345;28;20439;-69
2021/06/08 09:23:23;;;;;;;12.15;9.73;;;;;;;;;;5061973;28;20055;-69
2021/06/08 09:25:51;;;;;;;15.63;11.45;;;;;;;;;;5065985;28;20456;-69
2021/06/08 09:28:23;;;;;;;11.40;9.70;;;;;;;;;;5068391;28;20166;-69
2021/06/08 09:30:53;;;;;;;12.05;9.57;;;;;;;;;;5062994;28;20070;-69
2021/06/08 09:33:21;;;;;;;14.68;9.80;;;;;;;;;;5061905;28;20123;-69
2021/06/08 09:35:55;;;;;;;11.00;9.45;;;;;;;;;;5061681;28;20083;-69
2021/06/08 09:38:22;;;;;;;11.75;8.82;;;;;;;;;;5064579;28;20102;-69
2021/06/08 09:40:49;;;;;;;12.32;8.52;;;;;;;;;;5065265;28;20459;-69
2021/06/08 09:43:15;;;;;;;9.50;6.93;;;;;;;;;;5060657;28;20055;-69
2021/06/08 09:45:44;;;;;;;8.50;6.53;;;;;;;;;;5061825;28;20608;-69
2021/06/08 09:48:11;;;;;;;7.85;6.25;;;;;;;;;;5063956;28;20445;-69
2021/06/08 09:50:39;;;;;;;11.23;7.22;;;;;;;;;;5060777;28;20067;-69
2021/06/08 09:53:17;;;;;;;9.07;6.13;;;;;;;;;;5059984;28;20060;-69
2021/06/08 09:55:49;;;;;;;11.45;5.82;;;;;;;;;;5063659;28;20516;-69
2021/06/08 09:58:15;;;;;;;7.88;4.22;;;;;;;;;;5054838;28;20717;-69
2021/06/08 10:00:42;;;;;;;7.57;4.50;;;;;;;;;;5051669;28;20048;-69
2021/06/08 10:03:08;;;;;;;7.30;5.30;;;;;;;;;;5062570;28;20502;-69
2021/06/08 10:05:35;;;;;;;9.18;5.50;;;;;;;;;;5060964;28;20102;-70
2021/06/08 10:08:08;;;;;;;8.68;5.50;;;;;;;;;;5056158;28;20146;-70
2021/06/08 10:10:37;;;;;;;6.70;5.40;;;;;;;;;;5065653;28;20092;-70
2021/06/08 10:13:03;;;;;;;6.20;5.28;;;;;;;;;;5058617;28;20045;-70
2021/06/08 10:15:35;;;;;;;5.30;4.20;;;;;;;;;;5066386;28;20040;-70
2021/06/08 10:18:04;;;;;;;6.65;4.30;;;;;;;;;;5069547;28;20056;-70
2021/06/08 10:20:33;;;;;;;6.47;3.33;;;;;;;;;;5068399;28;20040;-69
2021/06/08 10:23:03;;;;;;;5.70;4.00;;;;;;;;;;5069078;28;20470;-70
2021/06/08 10:25:30;;;;;;;5.97;4.40;;;;;;;;;;5068983;28;20788;-69
2021/06/08 10:27:57;;;;;;;5.38;4.43;;;;;;;;;;5063787;28;20399;-70
2021/06/08 10:30:23;;;;;;;7.90;5.07;;;;;;;;;;5070338;28;20062;-69
2021/06/08 10:32:52;;;;;;;8.07;5.15;;;;;;;;;;5069828;28;20116;-70
2021/06/08 10:35:19;;;;;;;7.40;5.25;;;;;;;;;;5070575;28;20074;-69
2021/06/08 10:37:59;;;;;;;8.48;4.80;;;;;;;;;;5070439;28;20071;-70
2021/06/08 10:40:27;;;;;;;7.03;5.55;;;;;;;;;;5069647;28;20070;-70
2021/06/08 10:42:54;;;;;;;8.90;5.40;;;;;;;;;;5070224;28;20052;-70
2021/06/08 10:45:20;;;;;;;9.85;6.40;;;;;;;;;;5067516;28;20429;-70
2021/06/08 10:48:03;;;;;;;8.38;6.25;;;;;;;;;;5064999;28;20511;-70
2021/06/08 10:50:33;;;;;;;6.88;5.15;;;;;;;;;;5069968;28;20041;-69
2021/06/08 10:53:00;;;;;;;8.10;5.40;;;;;;;;;;5069747;28;20080;-70
2021/06/08 10:55:28;;;;;;;6.88;5.03;;;;;;;;;;5069322;28;20134;-69
2021/06/08 10:57:54;;;;;;;6.47;5.18;;;;;;;;;;5068911;28;20056;-70
2021/06/08 11:00:26;;;;;;;8.07;7.05;;;;;;;;;;5068622;28;20036;-70
2021/06/08 11:02:59;;;;;;;7.30;5.93;;;;;;;;;;5068575;28;20159;-70
2021/06/08 11:05:46;;;;;;;10.73;6.00;;;;;;;;;;5069287;28;20112;-69
2021/06/08 11:08:12;;;;;;;8.70;5.97;;;;;;;;;;5057682;28;20416;-70
2021/06/08 11:10:51;;;;;;;7.30;6.00;;;;;;;;;;5067771;28;20048;-70
2021/06/08 11:13:17;;;;;;;7.93;5.63;;;;;;;;;;5062852;28;20063;-70
2021/06/08 11:15:51;;;;;;;7.13;5.30;;;;;;;;;;5054203;28;20064;-70
2021/06/08 11:18:33;;;;;;;9.55;6.60;;;;;;;;;;5051817;28;20808;-70
2021/06/08 11:21:05;;;;;;;8.45;5.45;;;;;;;;;;5054021;28;20403;-70
2021/06/08 11:23:42;;;;;;;8.15;6.68;;;;;;;;;;5057940;28;20462;-70
2021/06/08 11:26:13;;;;;;;8.38;6.05;;;;;;;;;;5043988;28;20044;-70
2021/06/08 11:28:46;;;;;;;7.82;6.78;;;;;;;;;;5049764;28;20055;-70
2021/06/08 11:31:14;;;;;;;7.28;6.32;;;;;;;;;;5060308;28;20550;-70
2021/06/08 11:33:42;;;;;;;8.80;6.63;;;;;;;;;;5063889;28;20496;-70
2021/06/08 11:36:18;;;;;;;6.78;5.72;;;;;;;;;;5064457;28;20041;-70
2021/06/08 11:38:46;;;;;;;8.35;4.97;;;;;;;;;;5064965;28;20045;-70
2021/06/08 11:41:16;;;;;;;8.88;5.68;;;;;;;;;;5065469;28;20055;-70
2021/06/08 11:43:44;;;;;;;6.40;5.30;;;;;;;;;;5062279;28;20040;-70
2021/06/08 11:46:13;;;;;;;8.43;6.47;;;;;;;;;;5065200;28;20501;-69
2021/06/08 11:48:45;;;;;;;6.80;4.85;;;;;;;;;;5064296;28;20398;-70
2021/06/08 11:51:15;;;;;;;7.15;4.78;;;;;;;;;;5062401;28;20164;-70
2021/06/08 11:53:57;;;;;;;6.30;5.32;;;;;;;;;;5065146;28;20492;-70
2021/06/08 11:56:40;;;;;;;6.90;4.85;;;;;;;;;;5062911;28;20123;-70
2021/06/08 11:59:07;;;;;;;6.47;5.40;;;;;;;;;;5062908;28;20048;-70
2021/06/08 12:01:36;;;;;;;8.45;5.20;;;;;;;;;;5065672;28;20049;-70
2021/06/08 12:04:06;;;;;;;7.05;5.40;;;;;;;;;;5062231;28;20119;-70
2021/06/08 12:06:54;;;;;;;6.60;5.65;;;;;;;;;;5064887;28;20088;-70
2021/06/08 12:09:22;;;;;;;6.57;5.70;;;;;;;;;;5067059;28;20083;-70
2021/06/08 12:11:50;;;;;;;5.82;4.22;;;;;;;;;;5067496;28;20062;-70
2021/06/08 12:14:18;;;;;;;8.10;5.50;;;;;;;;;;5067913;28;20131;-69
2021/06/08 12:16:48;;;;;;;8.20;5.75;;;;;;;;;;5063602;28;20522;-70
2021/06/08 12:19:16;;;;;;;6.72;5.22;;;;;;;;;;5063064;28;20140;-70
2021/06/08 12:21:44;;;;;;;6.28;5.07;;;;;;;;;;5060934;28;20097;-70
2021/06/08 12:24:18;;;;;;;7.60;5.53;;;;;;;;;;5036089;28;20411;-70
2021/06/08 12:26:56;;;;;;;7.97;5.28;;;;;;;;;;5054993;28;20047;-70
2021/06/08 12:29:23;;;;;;;6.80;4.88;;;;;;;;;;5062139;28;20388;-70
2021/06/08 12:31:56;;;;;;;7.30;4.22;;;;;;;;;;5066403;28;20157;-70
2021/06/08 12:34:25;;;;;;;5.10;3.65;;;;;;;;;;5069895;28;20052;-70
2021/06/08 12:36:52;;;;;;;5.93;4.20;;;;;;;;;;5067757;28;20127;-70
2021/06/08 12:39:20;;;;;;;8.48;4.78;;;;;;;;;;5067778;28;20051;-70
2021/06/08 12:41:47;;;;;;;6.47;5.13;;;;;;;;;;5068376;28;20106;-70
2021/06/08 12:44:25;;;;;;;6.88;5.53;;;;;;;;;;5069267;28;20136;-70
2021/06/08 12:46:51;;;;;;;7.80;5.38;;;;;;;;;;5065875;28;20036;-70
2021/06/08 12:49:19;;;;;;;7.95;6.30;;;;;;;;;;5069602;28;20041;-70
2021/06/08 12:51:52;;;;;;;7.07;6.15;;;;;;;;;;5047667;28;20040;-70
2021/06/08 12:54:35;;;;;;;8.43;7.28;;;;;;;;;;5071607;28;20088;-70
2021/06/08 12:57:04;;;;;;;8.48;7.57;;;;;;;;;;5067562;28;20464;-71
2021/06/08 12:59:32;;;;;;;10.23;7.55;;;;;;;;;;5067462;28;20094;-70
2021/06/08 13:02:01;;;;;;;8.98;8.07;;;;;;;;;;5066425;28;20520;-71
2021/06/08 13:04:27;;;;;;;10.48;9.43;;;;;;;;;;5068792;28;20040;-70
2021/06/08 13:06:55;;;;;;;9.90;8.90;;;;;;;;;;5068132;28;20052;-71
2021/06/08 13:09:22;;;;;;;10.18;9.18;;;;;;;;;;5040054;28;20071;-71
2021/06/08 13:11:48;;;;;;;10.48;9.00;;;;;;;;;;5068903;28;20145;-70
2021/06/08 13:14:20;;;;;;;9.18;8.20;;;;;;;;;;5066088;28;20048;-70
2021/06/08 13:16:46;;;;;;;10.00;8.20;;;;;;;;;;5066099;28;20052;-70
2021/06/08 13:19:24;;;;;;;9.30;8.32;;;;;;;;;;5068104;28;20143;-70
2021/06/08 13:21:52;;;;;;;9.35;8.35;;;;;;;;;;5063417;28;20097;-71
2021/06/08 13:24:20;;;;;;;12.82;8.32;;;;;;;;;;5067201;28;20040;-71
2021/06/08 13:26:47;;;;;;;8.68;7.72;;;;;;;;;;5069108;28;20044;-71
2021/06/08 13:29:15;;;;;;;10.20;8.00;;;;;;;;;;5067635;28;20469;-70
2021/06/08 13:31:42;;;;;;;9.52;8.32;;;;;;;;;;5064426;28;20488;-79
2021/06/08 13:34:19;;;;;;;11.07;7.82;;;;;;;;;;5066308;28;20049;-78
2021/06/08 13:36:45;;;;;;;10.18;7.70;;;;;;;;;;5066365;28;20037;-87
2021/06/08 13:39:14;;;;;;;11.07;7.93;;;;;;;;;;5049751;28;20238;-86
2021/06/08 13:41:41;;;;;;;8.75;7.10;;;;;;;;;;5070066;28;20178;-84
2021/06/08 13:44:09;;;;;;;9.68;7.80;;;;;;;;;;5067436;28;20445;-85
2021/06/08 13:46:36;;;;;;;10.23;8.05;;;;;;;;;;5068506;28;20477;-85
2021/06/08 13:49:03;;;;;;;8.57;7.68;;;;;;;;;;5065645;28;20503;-86
2021/06/08 13:51:32;;;;;;;10.18;7.10;;;;;;;;;;5065768;28;20037;-84
2021/06/08 13:54:07;;;;;;;7.88;7.07;;;;;;;;;;5067401;28;20082;-85
2021/06/08 13:56:40;;;;;;;10.13;7.90;;;;;;;;;;5067311;28;20044;-84
2021/06/08 14:01:54;;;;;;;9.10;7.40;;;;;;;;;;5065429;28;20185;-85
2021/06/08 14:04:21;;;;;;;9.15;7.22;;;;;;;;;;5064940;28;20058;-85
2021/06/08 14:06:57;;;;;;;8.63;7.20;;;;;;;;;;5067127;28;20048;-85
2021/06/08 14:09:25;;;;;;;11.90;7.93;;;;;;;;;;5068411;28;20324;-85
2021/06/08 14:11:53;;;;;;;8.70;7.80;;;;;;;;;;5066421;28;20040;-85
2021/06/08 14:14:28;;;;;;;8.57;7.20;;;;;;;;;;5064072;28;20063;-85
2021/06/08 14:16:55;;;;;;;8.50;7.07;;;;;;;;;;5050745;28;20048;-85
2021/06/08 14:19:22;;;;;;;8.25;7.30;;;;;;;;;;5055011;28;20068;-84
2021/06/08 14:21:48;;;;;;;8.10;7.05;;;;;;;;;;5067717;28;20063;-85
2021/06/08 14:24:15;;;;;;;8.50;7.30;;;;;;;;;;5069612;28;20051;-85
2021/06/08 14:26:42;;;;;;;7.65;6.38;;;;;;;;;;5066262;28;20720;-85
2021/06/08 14:29:09;;;;;;;8.30;7.00;;;;;;;;;;5048642;28;20059;-86
2021/06/08 14:31:36;;;;;;;8.48;7.00;;;;;;;;;;5062335;28;20136;-85
2021/06/08 14:34:03;;;;;;;8.25;7.07;;;;;;;;;;5059870;28;20127;-85
2021/06/08 14:36:29;;;;;;;7.88;6.68;;;;;;;;;;5064413;28;20068;-85
2021/06/08 14:38:56;;;;;;;8.70;6.10;;;;;;;;;;5064745;28;20141;-84
2021/06/08 14:41:23;;;;;;;8.23;6.47;;;;;;;;;;5065936;28;20044;-83
2021/06/08 14:43:49;;;;;;;8.25;7.00;;;;;;;;;;5068000;28;20077;-84